Time;durP1;ratioP1;P1;durP2;ratioP2;P2;SDS_P1;SDS_P2;PMS_P1;PMS_P2;Temp;Humidity;BMP_temperature;BMP_pressure;BME280_temperature;BME280_humidity;BME280_pressure;Samples;Min_cycle;Max_cycle;Signal;HPM_P1;HPM_P2
2022/12/21 00:01:14;;;;;;;233.50;39.53;;;7.50;99.90;;;;;;6213770;23;20020;-93
2022/12/21 00:03:41;;;;;;;197.98;36.03;;;7.50;99.90;;;;;;6214402;23;20020;-93
2022/12/21 00:06:08;;;;;;;236.75;37.63;;;7.30;99.90;;;;;;6213947;23;20052;-92
2022/12/21 00:08:36;;;;;;;379.35;44.58;;;7.30;99.90;;;;;;6214899;23;20024;-92
2022/12/21 00:11:02;;;;;;;312.23;42.40;;;8.10;99.90;;;;;;6213015;23;20391;-93
2022/12/21 00:13:30;;;;;;;286.05;39.50;;;7.30;99.90;;;;;;6214651;23;20016;-93
2022/12/21 00:15:58;;;;;;;192.70;33.45;;;7.30;99.90;;;;;;6213924;23;20048;-92
2022/12/21 00:18:24;;;;;;;273.45;35.58;;;7.90;99.90;;;;;;6214201;23;20099;-92
2022/12/21 00:20:58;;;;;;;297.02;36.10;;;7.30;99.90;;;;;;6214460;23;20322;-93
2022/12/21 00:23:24;;;;;;;434.80;42.50;;;7.40;99.90;;;;;;6215034;23;20090;-93
2022/12/21 00:25:50;;;;;;;366.48;37.55;;;7.90;99.90;;;;;;6213577;23;20012;-92
2022/12/21 00:28:15;;;;;;;363.15;37.50;;;7.20;99.90;;;;;;6214150;23;20017;-92
2022/12/21 00:30:41;;;;;;;406.98;35.20;;;7.20;99.90;;;;;;6214346;23;20039;-92
2022/12/21 00:33:07;;;;;;;482.38;39.45;;;7.90;99.90;;;;;;6214085;23;20103;-92
2022/12/21 00:35:32;;;;;;;493.20;35.97;;;7.40;99.90;;;;;;6214872;23;20008;-93
2022/12/21 00:37:58;;;;;;;457.38;35.97;;;7.20;99.90;;;;;;6213125;23;20054;-93
2022/12/21 00:40:24;;;;;;;597.35;44.75;;;7.10;99.90;;;;;;6214675;23;20405;-93
2022/12/21 00:42:49;;;;;;;537.40;41.33;;;7.20;99.90;;;;;;6215457;23;20107;-93
2022/12/21 00:45:15;;;;;;;374.65;31.45;;;7.10;99.90;;;;;;6216105;23;20345;-93
2022/12/21 00:47:41;;;;;;;379.60;35.90;;;7.30;99.90;;;;;;6216278;23;20099;-92
2022/12/21 00:50:07;;;;;;;408.77;38.03;;;7.10;99.90;;;;;;6216291;23;20020;-92
2022/12/21 00:52:33;;;;;;;499.25;44.60;;;7.00;99.90;;;;;;6215106;23;20020;-92
2022/12/21 00:54:58;;;;;;;340.55;36.78;;;7.10;99.90;;;;;;6215438;23;20030;-92
2022/12/21 00:57:26;;;;;;;303.55;32.65;;;7.40;99.90;;;;;;6216014;23;20070;-92
2022/12/21 00:59:52;;;;;;;291.77;32.90;;;7.30;99.90;;;;;;6215049;23;20055;-92
2022/12/21 01:02:18;;;;;;;248.30;29.80;;;7.30;99.90;;;;;;6215913;23;20024;-92
2022/12/21 01:04:43;;;;;;;282.92;32.30;;;7.90;99.90;;;;;;6215259;23;20020;-93
2022/12/21 01:07:09;;;;;;;343.10;34.40;;;7.00;99.90;;;;;;6215317;23;20023;-92
2022/12/21 01:09:35;;;;;;;316.15;31.67;;;7.10;99.90;;;;;;6216175;23;20012;-93
2022/12/21 01:12:01;;;;;;;209.65;29.95;;;7.10;99.90;;;;;;6214603;23;20020;-92
2022/12/21 01:14:26;;;;;;;190.30;28.75;;;7.00;99.90;;;;;;6216319;23;20370;-92
2022/12/21 01:16:52;;;;;;;192.32;29.98;;;7.00;99.90;;;;;;6214943;23;20038;-92
2022/12/21 01:19:18;;;;;;;303.40;32.92;;;6.90;99.90;;;;;;6216032;23;20051;-92
2022/12/21 01:21:43;;;;;;;338.02;35.38;;;7.10;99.90;;;;;;6214964;23;20055;-90
2022/12/21 01:24:12;;;;;;;221.73;29.42;;;7.60;99.90;;;;;;6215099;23;20039;-89
2022/12/21 01:26:38;;;;;;;334.58;34.72;;;7.40;99.90;;;;;;6214100;23;20040;-92
2022/12/21 01:29:04;;;;;;;293.80;34.22;;;7.00;99.90;;;;;;6214728;23;20027;-92
2022/12/21 01:31:30;;;;;;;328.88;33.60;;;7.10;99.90;;;;;;6216079;23;20019;-92
2022/12/21 01:33:56;;;;;;;343.67;36.15;;;7.30;99.90;;;;;;6214892;23;20012;-93
2022/12/21 01:36:23;;;;;;;220.32;28.10;;;7.30;99.90;;;;;;6215449;23;20019;-92
2022/12/21 01:38:49;;;;;;;223.18;28.67;;;7.50;99.90;;;;;;6215063;23;20020;-91
2022/12/21 01:41:23;;;;;;;256.60;33.28;;;6.80;99.90;;;;;;6214564;23;20070;-91
2022/12/21 01:43:51;;;;;;;158.95;26.23;;;7.00;99.90;;;;;;6214411;23;20441;-91
2022/12/21 01:46:29;;;;;;;259.63;32.40;;;6.90;99.90;;;;;;6215500;23;20016;-92
2022/12/21 01:49:03;;;;;;;153.70;27.27;;;6.80;99.90;;;;;;6214463;23;20016;-92
2022/12/21 01:51:30;;;;;;;169.65;28.83;;;7.30;99.90;;;;;;6214832;23;20199;-92
2022/12/21 01:54:02;;;;;;;147.45;26.45;;;6.70;99.90;;;;;;6240375;23;20008;-91
2022/12/21 01:56:33;;;;;;;166.65;27.50;;;7.20;99.90;;;;;;6213740;23;20016;-91
2022/12/21 01:59:14;;;;;;;191.88;27.80;;;7.40;99.90;;;;;;6215019;23;20317;-92
2022/12/21 02:01:40;;;;;;;163.77;27.33;;;6.70;99.90;;;;;;6215138;23;20119;-92
2022/12/21 02:04:07;;;;;;;196.25;27.88;;;6.80;99.90;;;;;;6214777;23;20016;-92
2022/12/21 02:06:40;;;;;;;234.93;29.13;;;6.60;99.90;;;;;;6215292;23;20020;-92
2022/12/21 02:09:07;;;;;;;233.48;30.20;;;6.60;99.90;;;;;;6214425;23;20023;-91
2022/12/21 02:11:33;;;;;;;235.15;26.38;;;7.00;99.90;;;;;;6214570;23;20040;-92
2022/12/21 02:13:58;;;;;;;300.27;29.02;;;6.70;99.90;;;;;;6214760;23;20016;-92
2022/12/21 02:16:31;;;;;;;339.45;30.02;;;6.60;99.90;;;;;;6215079;23;20026;-91
2022/12/21 02:19:34;;;;;;;325.05;28.33;;;6.50;99.90;;;;;;6213979;23;20047;-91
2022/12/21 02:22:07;;;;;;;276.23;28.58;;;6.50;99.90;;;;;;6214792;23;20023;-91
2022/12/21 02:25:02;;;;;;;345.92;34.55;;;6.60;99.90;;;;;;6214479;23;20016;-91
2022/12/21 02:27:32;;;;;;;371.63;34.45;;;7.00;99.90;;;;;;6214864;23;20024;-91
2022/12/21 02:30:13;;;;;;;336.70;30.02;;;6.50;99.90;;;;;;6213743;23;20425;-91
2022/12/21 02:33:04;;;;;;;398.17;33.83;;;6.40;99.90;;;;;;6214724;23;20027;-91
2022/12/21 02:35:49;;;;;;;236.73;25.20;;;6.60;99.90;;;;;;6214945;23;20020;-91
2022/12/21 02:38:38;;;;;;;281.40;28.70;;;6.50;99.90;;;;;;6214662;23;20024;-91
2022/12/21 02:41:16;;;;;;;206.02;23.75;;;6.50;99.90;;;;;;6213378;23;20460;-91
2022/12/21 02:44:13;;;;;;;277.38;27.65;;;6.40;99.90;;;;;;6214761;23;20016;-92
2022/12/21 02:46:43;;;;;;;263.17;25.25;;;7.10;99.90;;;;;;6214898;23;20094;-91
2022/12/21 02:49:16;;;;;;;214.20;23.77;;;6.40;99.90;;;;;;6214675;23;20020;-91
2022/12/21 02:51:55;;;;;;;359.77;29.65;;;6.40;99.90;;;;;;6214409;23;20020;-93
2022/12/21 02:54:22;;;;;;;220.73;21.38;;;6.30;99.90;;;;;;6215251;23;20016;-92
2022/12/21 02:56:47;;;;;;;369.20;28.65;;;6.90;99.90;;;;;;6213279;23;20524;-92
2022/12/21 02:59:16;;;;;;;261.75;20.75;;;6.30;99.90;;;;;;6215048;23;20020;-92
2022/12/21 03:01:47;;;;;;;291.60;24.73;;;6.10;99.90;;;;;;6214693;23;20015;-93
2022/12/21 03:04:23;;;;;;;315.38;25.20;;;6.20;99.90;;;;;;6214364;23;20020;-92
2022/12/21 03:07:01;;;;;;;295.92;22.80;;;6.40;99.90;;;;;;6213644;23;20012;-91
2022/12/21 03:09:37;;;;;;;220.77;20.33;;;6.10;99.90;;;;;;6214473;23;20051;-92
2022/12/21 03:12:14;;;;;;;194.73;17.52;;;6.20;99.90;;;;;;6213295;23;20015;-92
2022/12/21 03:14:54;;;;;;;148.80;19.27;;;6.10;99.90;;;;;;6214700;23;20020;-91
2022/12/21 03:17:30;;;;;;;214.13;18.25;;;6.00;99.90;;;;;;6215011;23;20095;-91
2022/12/21 03:20:09;;;;;;;232.32;20.70;;;6.90;99.90;;;;;;6213672;23;20012;-91
2022/12/21 03:22:43;;;;;;;347.38;22.23;;;6.00;99.90;;;;;;6214506;23;20028;-91
2022/12/21 03:25:18;;;;;;;298.50;20.60;;;6.00;99.90;;;;;;6214200;23;20020;-91
2022/12/21 03:27:50;;;;;;;354.70;24.55;;;6.10;99.90;;;;;;6212823;23;20020;-91
2022/12/21 03:30:19;;;;;;;431.90;27.23;;;6.20;99.90;;;;;;6214797;23;20019;-90
2022/12/21 03:32:51;;;;;;;365.63;26.70;;;6.00;99.90;;;;;;6214001;23;20024;-92
2022/12/21 03:35:25;;;;;;;366.48;24.17;;;6.10;99.90;;;;;;6213676;23;20078;-90
2022/12/21 03:37:53;;;;;;;241.65;20.98;;;6.10;99.90;;;;;;6213551;23;20110;-92
2022/12/21 03:40:24;;;;;;;414.63;30.63;;;6.00;99.90;;;;;;6214174;23;20470;-92
2022/12/21 03:42:58;;;;;;;295.10;25.65;;;6.00;99.90;;;;;;6213116;23;20139;-92
2022/12/21 03:45:32;;;;;;;281.20;24.83;;;6.90;99.90;;;;;;6214760;23;20472;-92
2022/12/21 03:48:05;;;;;;;242.00;21.23;;;5.90;99.90;;;;;;6213404;23;20031;-92
2022/12/21 03:50:36;;;;;;;235.48;19.42;;;6.00;99.90;;;;;;6214377;23;20008;-92
2022/12/21 03:53:19;;;;;;;205.05;19.75;;;6.00;99.90;;;;;;6214117;23;20353;-92
2022/12/21 03:55:48;;;;;;;239.85;19.35;;;5.90;99.90;;;;;;6212155;23;20020;-91
2022/12/21 03:58:14;;;;;;;203.70;21.98;;;5.90;99.90;;;;;;6214290;23;20322;-91
2022/12/21 04:01:07;;;;;;;183.43;19.88;;;5.90;99.90;;;;;;6214235;23;20036;-90
2022/12/21 04:03:38;;;;;;;220.95;21.48;;;5.90;99.90;;;;;;6239501;23;20026;-91
2022/12/21 04:06:11;;;;;;;231.55;20.45;;;7.00;99.90;;;;;;6214007;23;20056;-92
2022/12/21 04:08:37;;;;;;;221.20;18.70;;;6.20;99.90;;;;;;6214203;23;20066;-92
2022/12/21 04:11:04;;;;;;;207.98;18.00;;;5.90;99.90;;;;;;6212656;23;20020;-90
2022/12/21 04:13:30;;;;;;;197.93;18.75;;;5.90;99.90;;;;;;6214386;23;20019;-91
2022/12/21 04:16:03;;;;;;;141.50;18.73;;;6.50;99.90;;;;;;6214075;23;20462;-90
2022/12/21 04:21:13;;;;;;;171.50;17.50;;;5.90;99.90;;;;;;6241964;23;20035;-92
2022/12/21 04:29:08;;;;;;;250.23;18.85;;;5.80;99.90;;;;;;6241007;23;20074;-91
2022/12/21 04:31:33;;;;;;;254.73;18.60;;;5.70;99.90;;;;;;6215330;23;20016;-91
2022/12/21 04:33:59;;;;;;;257.80;15.93;;;5.80;99.90;;;;;;6215766;23;20431;-90
2022/12/21 04:39:10;;;;;;;128.30;13.60;;;5.80;99.90;;;;;;6241499;23;20308;-91
2022/12/21 04:41:35;;;;;;;216.88;18.65;;;5.80;99.90;;;;;;6215579;23;20064;-91
2022/12/21 04:44:01;;;;;;;194.75;17.38;;;6.20;99.90;;;;;;6214679;23;20341;-91
2022/12/21 04:46:27;;;;;;;229.82;19.52;;;5.80;99.90;;;;;;6216076;23;20061;-91
2022/12/21 04:48:52;;;;;;;263.38;19.75;;;6.10;99.90;;;;;;6215250;23;20016;-91
2022/12/21 04:51:21;;;;;;;175.57;19.50;;;6.30;99.90;;;;;;6215340;23;20047;-90
2022/12/21 04:53:48;;;;;;;143.40;15.70;;;6.00;99.90;;;;;;6215062;23;20020;-92
2022/12/21 04:56:14;;;;;;;227.88;18.95;;;6.50;99.90;;;;;;6215007;23;20023;-91
2022/12/21 04:58:40;;;;;;;254.10;19.70;;;6.10;99.90;;;;;;6215416;23;20016;-90
2022/12/21 05:01:10;;;;;;;190.90;19.20;;;6.10;99.90;;;;;;6214565;23;20016;-91
2022/12/21 05:03:36;;;;;;;213.10;19.52;;;6.00;99.90;;;;;;6216196;23;20054;-90
2022/12/21 05:06:02;;;;;;;278.98;22.15;;;6.20;99.90;;;;;;6214369;23;20019;-92
2022/12/21 05:08:29;;;;;;;282.58;20.83;;;5.90;99.90;;;;;;6215637;23;20016;-91
2022/12/21 05:10:54;;;;;;;252.57;17.30;;;6.00;99.90;;;;;;6214313;23;20194;-90
2022/12/21 05:13:20;;;;;;;167.43;15.65;;;6.50;99.90;;;;;;6215562;23;20012;-91
2022/12/21 05:15:46;;;;;;;169.30;15.70;;;5.70;99.90;;;;;;6214800;23;20023;-91
2022/12/21 05:18:11;;;;;;;244.00;17.98;;;6.10;99.90;;;;;;6215287;23;20432;-91
2022/12/21 05:20:37;;;;;;;194.02;15.65;;;6.20;99.90;;;;;;6214963;23;20448;-90
2022/12/21 05:23:03;;;;;;;255.60;19.25;;;5.90;99.90;;;;;;6215084;23;20327;-90
2022/12/21 05:25:28;;;;;;;244.45;16.65;;;5.90;99.90;;;;;;6215118;23;20034;-91
2022/12/21 05:27:54;;;;;;;176.82;15.02;;;6.30;99.90;;;;;;6212956;23;20088;-92
2022/12/21 05:30:20;;;;;;;187.70;15.50;;;6.10;99.90;;;;;;6215708;23;20047;-93
2022/12/21 05:32:45;;;;;;;150.45;14.93;;;6.00;99.90;;;;;;6214356;23;20016;-92
2022/12/21 05:35:11;;;;;;;198.32;17.58;;;6.00;99.90;;;;;;6214511;23;20374;-91
2022/12/21 05:37:37;;;;;;;209.98;19.30;;;5.80;99.90;;;;;;6214465;23;20437;-91
2022/12/21 05:40:02;;;;;;;189.70;16.25;;;5.80;99.90;;;;;;6214358;23;20051;-91
2022/12/21 05:42:28;;;;;;;268.88;19.52;;;5.90;99.90;;;;;;6214314;23;20020;-90
2022/12/21 05:44:54;;;;;;;210.02;16.20;;;5.90;99.90;;;;;;6216560;23;20040;-91
2022/12/21 05:47:19;;;;;;;171.02;14.45;;;5.90;99.90;;;;;;6215161;23;20451;-92
2022/12/21 05:49:45;;;;;;;186.15;15.75;;;6.70;99.90;;;;;;6214639;23;20016;-91
2022/12/21 05:52:11;;;;;;;183.27;14.88;;;5.90;99.90;;;;;;6216190;23;20551;-92
2022/12/21 05:54:37;;;;;;;171.30;15.52;;;5.80;99.90;;;;;;6215050;23;20015;-91
2022/12/21 05:57:03;;;;;;;188.52;15.75;;;5.90;99.90;;;;;;6214280;23;20130;-91
2022/12/21 05:59:28;;;;;;;154.68;14.75;;;5.70;99.90;;;;;;6215512;23;20020;-91
2022/12/21 06:01:54;;;;;;;173.32;15.45;;;5.70;99.90;;;;;;6213842;23;20028;-91
2022/12/21 06:04:20;;;;;;;162.32;16.42;;;5.70;99.90;;;;;;6214898;23;20048;-91
2022/12/21 06:06:46;;;;;;;172.70;16.15;;;5.70;99.90;;;;;;6214029;23;20020;-90
2022/12/21 06:09:12;;;;;;;197.95;16.60;;;5.80;99.90;;;;;;6214892;23;20012;-91
2022/12/21 06:11:38;;;;;;;136.32;16.52;;;5.60;99.90;;;;;;6214692;23;20018;-91
2022/12/21 06:14:04;;;;;;;178.40;17.90;;;5.70;99.90;;;;;;6214374;23;20444;-91
2022/12/21 06:16:30;;;;;;;159.23;16.10;;;5.70;99.90;;;;;;6214459;23;20471;-90
2022/12/21 06:18:55;;;;;;;116.82;14.77;;;6.20;99.90;;;;;;6213746;23;20016;-91
2022/12/21 06:21:21;;;;;;;180.45;17.77;;;5.70;99.90;;;;;;6215831;23;20146;-91
2022/12/21 06:23:47;;;;;;;154.20;17.40;;;5.60;99.90;;;;;;6214434;23;20012;-90
2022/12/21 06:26:18;;;;;;;164.55;18.33;;;5.90;99.90;;;;;;6214071;23;20016;-90
2022/12/21 06:28:50;;;;;;;162.70;17.58;;;5.60;99.90;;;;;;6214528;23;20016;-91
2022/12/21 06:31:16;;;;;;;189.65;18.75;;;5.60;99.90;;;;;;6214968;23;20492;-91
2022/12/21 06:33:41;;;;;;;166.32;17.65;;;5.60;99.90;;;;;;6214970;23;20027;-91
2022/12/21 06:36:08;;;;;;;138.00;15.88;;;5.90;99.90;;;;;;6213641;23;20016;-91
2022/12/21 06:38:35;;;;;;;142.80;18.25;;;5.80;99.90;;;;;;6214403;23;20027;-90
2022/12/21 06:41:04;;;;;;;125.25;16.25;;;5.90;99.90;;;;;;6238292;23;20555;-90
2022/12/21 06:43:32;;;;;;;190.07;17.42;;;5.80;99.90;;;;;;6239534;23;20016;-90
2022/12/21 06:46:00;;;;;;;193.60;19.05;;;5.80;99.90;;;;;;6213527;23;20027;-90
2022/12/21 06:48:28;;;;;;;215.35;20.50;;;5.80;99.90;;;;;;6214322;23;20020;-90
2022/12/21 06:50:55;;;;;;;200.82;20.27;;;5.80;99.90;;;;;;6238959;23;20026;-91
2022/12/21 06:53:23;;;;;;;224.50;22.20;;;6.10;99.90;;;;;;6214937;23;20090;-92
2022/12/21 06:55:49;;;;;;;216.98;20.40;;;5.60;99.90;;;;;;6213413;23;20012;-90
2022/12/21 06:58:15;;;;;;;153.30;18.13;;;5.80;99.90;;;;;;6214085;23;20012;-91
2022/12/21 07:00:41;;;;;;;166.38;19.13;;;5.70;99.90;;;;;;6214641;23;20081;-91
2022/12/21 07:03:07;;;;;;;231.55;21.48;;;5.70;99.90;;;;;;6213981;23;20432;-91
2022/12/21 07:05:33;;;;;;;226.25;21.63;;;5.70;99.90;;;;;;6214482;23;20016;-90
2022/12/21 07:08:00;;;;;;;217.40;21.08;;;5.80;99.90;;;;;;6213643;23;20391;-92
2022/12/21 07:10:25;;;;;;;222.70;21.52;;;6.30;99.90;;;;;;6215087;23;20020;-90
2022/12/21 07:12:51;;;;;;;269.00;23.25;;;5.80;99.90;;;;;;6212517;23;20091;-90
2022/12/21 07:15:17;;;;;;;226.85;20.88;;;5.70;99.90;;;;;;6214501;23;20077;-91
2022/12/21 07:17:42;;;;;;;186.70;20.92;;;5.70;99.90;;;;;;6214762;23;20031;-91
2022/12/21 07:20:09;;;;;;;211.32;22.05;;;6.20;99.90;;;;;;6213524;23;20406;-92
2022/12/21 07:22:34;;;;;;;194.40;23.15;;;5.80;99.90;;;;;;6214869;23;20091;-90
2022/12/21 07:25:00;;;;;;;238.65;24.48;;;5.90;99.90;;;;;;6213579;23;20043;-90
2022/12/21 07:27:26;;;;;;;206.68;23.92;;;5.90;99.90;;;;;;6212141;23;20448;-90
2022/12/21 07:29:52;;;;;;;228.52;25.58;;;6.00;99.90;;;;;;6215795;23;20011;-90
2022/12/21 07:32:17;;;;;;;287.73;29.90;;;5.90;99.90;;;;;;6217118;23;20058;-94
2022/12/21 07:34:43;;;;;;;172.40;26.08;;;6.70;99.90;;;;;;6211840;23;20027;-92
2022/12/21 07:37:09;;;;;;;201.88;27.02;;;6.90;99.90;;;;;;6209904;23;20044;-91
2022/12/21 07:39:35;;;;;;;198.50;27.40;;;5.80;99.90;;;;;;6210504;23;20023;-91
2022/12/21 07:42:01;;;;;;;189.05;28.52;;;6.00;99.90;;;;;;6209711;23;20446;-90
2022/12/21 07:44:27;;;;;;;191.55;27.15;;;6.00;99.90;;;;;;6210792;23;20020;-91
2022/12/21 07:46:52;;;;;;;139.65;24.23;;;7.00;99.90;;;;;;6209757;23;20016;-92
2022/12/21 07:49:18;;;;;;;161.55;26.08;;;6.30;99.90;;;;;;6211062;23;20099;-91
2022/12/21 07:51:44;;;;;;;205.68;29.63;;;6.90;99.90;;;;;;6209541;23;20471;-91
2022/12/21 07:54:09;;;;;;;138.82;26.80;;;6.00;99.90;;;;;;6210392;23;20016;-89
2022/12/21 07:56:35;;;;;;;166.35;28.00;;;6.20;99.90;;;;;;6235120;23;20031;-91
2022/12/21 07:59:01;;;;;;;171.13;30.10;;;6.00;99.90;;;;;;6210142;23;20023;-90
2022/12/21 08:01:26;;;;;;;180.02;29.88;;;6.00;99.90;;;;;;6210561;23;20055;-91
2022/12/21 08:03:53;;;;;;;186.85;29.17;;;5.80;99.90;;;;;;6212168;23;20154;-90
2022/12/21 08:06:19;;;;;;;207.50;31.58;;;5.80;99.90;;;;;;6211374;23;20442;-91
2022/12/21 08:08:45;;;;;;;224.95;33.40;;;6.00;99.90;;;;;;6211937;23;20031;-90
2022/12/21 08:11:14;;;;;;;184.80;31.17;;;6.00;99.90;;;;;;6209057;23;20103;-89
2022/12/21 08:13:41;;;;;;;203.10;34.88;;;6.00;99.90;;;;;;6210563;23;20016;-91
2022/12/21 08:16:09;;;;;;;163.45;32.78;;;6.00;99.90;;;;;;6210206;23;20388;-91
2022/12/21 08:18:35;;;;;;;170.43;32.15;;;5.90;99.90;;;;;;6210727;23;20264;-90
2022/12/21 08:21:00;;;;;;;195.00;32.80;;;5.90;99.90;;;;;;6209394;23;20016;-90
2022/12/21 08:23:26;;;;;;;168.82;32.55;;;5.90;99.90;;;;;;6235090;23;20069;-89
2022/12/21 08:25:52;;;;;;;231.07;35.58;;;6.60;99.90;;;;;;6207715;23;20468;-89
2022/12/21 08:28:19;;;;;;;227.90;35.13;;;6.80;99.90;;;;;;6211351;23;20054;-89
2022/12/21 08:30:45;;;;;;;209.13;35.58;;;6.20;99.90;;;;;;6234637;23;20054;-93
2022/12/21 08:33:11;;;;;;;178.38;34.03;;;6.10;99.90;;;;;;6211001;23;20055;-88
2022/12/21 08:35:37;;;;;;;201.50;34.58;;;6.10;99.90;;;;;;6206659;23;20024;-88
2022/12/21 08:38:03;;;;;;;207.77;34.70;;;6.10;99.90;;;;;;6207694;23;20021;-90
2022/12/21 08:40:28;;;;;;;201.57;34.97;;;6.70;99.90;;;;;;6235382;23;20384;-88
2022/12/21 08:42:54;;;;;;;212.82;35.60;;;6.60;99.90;;;;;;6207553;23;20043;-89
2022/12/21 08:45:20;;;;;;;206.30;34.67;;;6.20;99.90;;;;;;6208790;23;20078;-89
2022/12/21 08:47:48;;;;;;;211.88;35.65;;;6.00;99.90;;;;;;6208141;23;20043;-89
2022/12/21 08:50:14;;;;;;;219.43;37.72;;;6.10;99.90;;;;;;6208968;23;20020;-89
2022/12/21 08:52:40;;;;;;;234.93;35.90;;;6.20;99.90;;;;;;6209613;23;20012;-90
2022/12/21 08:55:06;;;;;;;229.63;37.35;;;6.40;99.90;;;;;;6209727;23;20062;-90
2022/12/21 08:57:32;;;;;;;208.73;36.67;;;6.20;99.90;;;;;;6234767;23;20024;-92
2022/12/21 08:59:58;;;;;;;202.80;36.05;;;6.50;99.90;;;;;;6208004;23;20022;-89
2022/12/21 09:02:24;;;;;;;220.45;37.85;;;6.30;99.90;;;;;;6213626;23;20023;-90
2022/12/21 09:04:50;;;;;;;183.73;35.92;;;6.40;99.90;;;;;;6213426;23;20459;-89
2022/12/21 09:07:15;;;;;;;194.25;37.97;;;7.40;99.90;;;;;;6214833;23;20031;-91
2022/12/21 09:09:43;;;;;;;172.40;34.88;;;6.60;99.90;;;;;;6215345;23;20012;-91
2022/12/21 09:12:09;;;;;;;156.32;33.67;;;6.50;99.90;;;;;;6215149;23;20024;-91
2022/12/21 09:14:35;;;;;;;150.40;35.50;;;6.60;99.90;;;;;;6215464;23;20019;-91
2022/12/21 09:17:03;;;;;;;182.68;36.75;;;6.80;99.90;;;;;;6215319;23;20127;-90
2022/12/21 09:19:29;;;;;;;208.20;39.72;;;6.60;99.90;;;;;;6215788;23;20096;-90
2022/12/21 09:21:54;;;;;;;190.20;38.17;;;6.70;99.90;;;;;;6215127;23;20408;-90
2022/12/21 09:24:20;;;;;;;165.10;35.80;;;6.70;99.90;;;;;;6215399;23;20344;-90
2022/12/21 09:26:46;;;;;;;167.70;39.20;;;6.70;99.90;;;;;;6212893;23;20082;-91
2022/12/21 09:29:12;;;;;;;146.82;36.33;;;7.10;99.90;;;;;;6215175;23;20020;-91
2022/12/21 09:31:38;;;;;;;159.57;39.10;;;6.80;99.90;;;;;;6214826;23;20214;-90
2022/12/21 09:34:03;;;;;;;156.02;36.00;;;7.10;99.90;;;;;;6213627;23;20039;-90
2022/12/21 09:36:29;;;;;;;157.05;37.53;;;6.70;99.90;;;;;;6214644;23;20058;-90
2022/12/21 09:38:55;;;;;;;136.18;36.28;;;6.80;99.90;;;;;;6213623;23;20099;-90
2022/12/21 09:41:29;;;;;;;137.73;36.28;;;6.70;99.90;;;;;;6213861;23;20445;-88
2022/12/21 09:44:07;;;;;;;128.88;34.88;;;6.90;99.90;;;;;;6240847;23;20020;-89
2022/12/21 09:46:38;;;;;;;121.75;35.05;;;6.90;99.90;;;;;;6213271;23;20017;-90
2022/12/21 09:49:10;;;;;;;130.70;35.85;;;6.90;99.90;;;;;;6214461;23;20016;-91
2022/12/21 09:51:37;;;;;;;142.43;36.33;;;6.90;99.90;;;;;;6215199;23;20464;-90
2022/12/21 09:54:16;;;;;;;133.48;34.47;;;6.80;99.90;;;;;;6213577;23;20024;-90
2022/12/21 09:56:45;;;;;;;122.95;32.95;;;7.40;99.90;;;;;;6214911;23;20052;-89
2022/12/21 09:59:13;;;;;;;117.85;32.22;;;6.70;99.90;;;;;;6214528;23;20119;-90
2022/12/21 10:01:42;;;;;;;143.90;34.22;;;6.80;99.90;;;;;;6214100;23;20793;-91
2022/12/21 10:04:16;;;;;;;108.68;31.05;;;6.90;99.90;;;;;;6214408;23;20060;-90
2022/12/21 10:06:59;;;;;;;120.13;31.23;;;6.70;99.90;;;;;;6227415;23;20012;-91
2022/12/21 10:10:09;;;;;;;116.82;33.10;;;6.80;99.90;;;;;;6216548;23;20024;-91
2022/12/21 10:12:47;;;;;;;112.32;33.45;;;6.90;99.90;;;;;;6215566;23;20052;-91
2022/12/21 10:15:29;;;;;;;131.43;34.40;;;6.70;99.90;;;;;;6216205;23;20109;-90
2022/12/21 10:18:08;;;;;;;118.40;31.73;;;6.90;99.90;;;;;;6215903;23;20103;-89
2022/12/21 10:20:48;;;;;;;101.70;29.70;;;6.90;99.90;;;;;;6218508;23;20023;-91
2022/12/21 10:23:22;;;;;;;102.10;30.25;;;6.90;99.90;;;;;;6216657;23;20104;-91
2022/12/21 10:25:54;;;;;;;103.78;31.27;;;7.00;99.90;;;;;;6213711;23;20074;-91
2022/12/21 10:28:37;;;;;;;105.35;32.08;;;6.90;99.90;;;;;;6217167;23;20734;-91
2022/12/21 10:31:07;;;;;;;103.40;32.67;;;7.00;99.90;;;;;;6215672;23;20601;-91
2022/12/21 10:33:38;;;;;;;86.05;29.15;;;7.00;99.90;;;;;;6216704;23;20107;-91
2022/12/21 10:36:05;;;;;;;87.38;29.38;;;7.10;99.90;;;;;;6216161;23;20058;-89
2022/12/21 10:38:34;;;;;;;79.50;28.88;;;7.00;99.90;;;;;;6216370;23;20016;-90
2022/12/21 10:41:06;;;;;;;90.03;28.75;;;7.00;99.90;;;;;;6214548;23;20020;-91
2022/12/21 10:43:37;;;;;;;87.00;28.23;;;7.20;99.90;;;;;;6218489;23;20457;-91
2022/12/21 10:46:05;;;;;;;96.55;29.73;;;7.00;99.90;;;;;;6216540;23;20016;-91
2022/12/21 10:48:32;;;;;;;84.65;31.73;;;6.90;99.90;;;;;;6215627;23;20078;-89
2022/12/21 10:51:25;;;;;;;97.05;33.03;;;7.20;99.90;;;;;;6240008;23;20134;-90
2022/12/21 10:54:05;;;;;;;79.07;29.08;;;7.00;99.90;;;;;;6215674;23;20039;-89
2022/12/21 10:56:35;;;;;;;80.07;28.95;;;6.80;99.90;;;;;;6214185;23;20016;-91
2022/12/21 10:59:22;;;;;;;81.80;29.88;;;7.30;99.90;;;;;;6214350;23;20050;-89
2022/12/21 11:01:49;;;;;;;90.50;31.25;;;7.10;99.90;;;;;;6215610;23;20150;-93
2022/12/21 11:04:25;;;;;;;73.88;29.02;;;7.70;99.90;;;;;;6216668;23;20166;-93
2022/12/21 11:07:01;;;;;;;78.30;30.90;;;7.30;99.90;;;;;;6216603;23;20077;-91
2022/12/21 11:09:33;;;;;;;76.05;28.33;;;7.30;99.90;;;;;;6216134;23;20468;-92
2022/12/21 11:12:17;;;;;;;79.55;27.75;;;7.40;99.90;;;;;;6215457;23;20048;-91
2022/12/21 11:14:43;;;;;;;70.65;27.33;;;7.30;99.90;;;;;;6216683;23;20016;-91
2022/12/21 11:17:17;;;;;;;76.50;28.85;;;7.50;99.90;;;;;;6216627;23;20436;-92
2022/12/21 11:19:43;;;;;;;88.00;29.38;;;7.60;99.90;;;;;;6219630;23;20103;-91
2022/12/21 11:22:11;;;;;;;62.85;26.42;;;7.60;99.90;;;;;;6220154;23;20048;-96
2022/12/21 11:24:44;;;;;;;59.95;25.70;;;7.50;99.90;;;;;;6241492;23;20016;-92
2022/12/21 11:27:11;;;;;;;61.20;25.23;;;7.70;99.90;;;;;;6226246;23;20027;-93
2022/12/21 11:29:48;;;;;;;62.47;26.27;;;7.60;99.90;;;;;;6215977;23;20095;-93
2022/12/21 11:32:15;;;;;;;56.90;23.10;;;7.60;99.90;;;;;;6218302;23;20561;-92
2022/12/21 11:34:50;;;;;;;60.95;22.45;;;7.80;99.90;;;;;;6216529;23;20109;-93
2022/12/21 11:37:38;;;;;;;68.78;23.73;;;7.80;99.90;;;;;;6241021;23;20016;-93
2022/12/21 11:40:11;;;;;;;61.50;24.20;;;7.70;99.90;;;;;;6217158;23;20024;-93
2022/12/21 11:42:52;;;;;;;58.75;23.58;;;7.90;99.90;;;;;;6216061;23;20020;-91
2022/12/21 11:45:20;;;;;;;56.35;22.85;;;7.80;99.90;;;;;;6216383;23;20027;-91
2022/12/21 11:48:13;;;;;;;53.53;21.40;;;7.80;99.90;;;;;;6215207;23;20463;-91
2022/12/21 11:50:49;;;;;;;61.30;23.42;;;7.70;99.90;;;;;;6218416;23;20379;-91
2022/12/21 11:53:31;;;;;;;61.67;21.73;;;7.80;99.90;;;;;;6216123;23;20024;-91
2022/12/21 11:56:12;;;;;;;63.58;23.08;;;7.80;99.90;;;;;;6216716;23;20000;-90
2022/12/21 11:58:46;;;;;;;56.10;23.08;;;7.60;99.90;;;;;;6215874;23;20011;-91
2022/12/21 12:01:33;;;;;;;58.05;21.17;;;7.60;99.90;;;;;;6215188;23;20019;-91
2022/12/21 12:04:25;;;;;;;55.20;21.65;;;7.70;99.90;;;;;;6215642;23;20314;-91
2022/12/21 12:07:05;;;;;;;67.78;22.42;;;7.60;99.90;;;;;;6215425;23;20020;-92
2022/12/21 12:10:00;;;;;;;54.15;19.77;;;7.60;99.90;;;;;;6218381;23;20043;-93
2022/12/21 12:13:16;;;;;;;55.05;20.67;;;7.60;99.90;;;;;;6221270;23;20071;-95
2022/12/21 12:16:02;;;;;;;61.13;18.88;;;7.60;99.90;;;;;;6182641;23;20020;-95
2022/12/21 12:19:03;;;;;;;51.00;19.38;;;7.60;99.90;;;;;;6216489;23;20052;-93
2022/12/21 12:21:32;;;;;;;43.45;17.85;;;7.70;99.90;;;;;;6215857;23;20012;-94
2022/12/21 12:24:28;;;;;;;59.90;18.45;;;7.70;99.90;;;;;;6216292;23;20016;-93
2022/12/21 12:27:23;;;;;;;47.55;17.13;;;7.70;99.90;;;;;;6217065;23;20020;-92
2022/12/21 12:30:06;;;;;;;44.88;16.27;;;7.60;99.90;;;;;;6216035;23;20510;-93
2022/12/21 12:32:38;;;;;;;;;;;7.80;99.90;;;;;;6216848;23;20363;-92
2022/12/21 12:35:07;;;;;;;42.97;16.67;;;7.90;99.90;;;;;;6215644;23;19965;-92
2022/12/21 12:37:45;;;;;;;47.63;17.08;;;7.80;99.90;;;;;;6218318;23;20020;-93
2022/12/21 12:40:20;;;;;;;52.03;17.38;;;7.90;99.90;;;;;;6218354;23;20016;-93
2022/12/21 12:42:56;;;;;;;45.53;17.02;;;7.90;99.90;;;;;;6217327;23;20066;-92
2022/12/21 12:45:39;;;;;;;46.15;16.92;;;7.80;99.90;;;;;;6218351;23;20337;-93
2022/12/21 12:48:36;;;;;;;51.55;17.52;;;7.90;99.90;;;;;;6217523;23;20020;-92
2022/12/21 12:51:02;;;;;;;36.40;16.02;;;7.90;99.90;;;;;;6242932;23;20020;-92
2022/12/21 12:53:46;;;;;;;43.35;16.13;;;7.90;99.90;;;;;;6217920;23;20061;-93
2022/12/21 12:56:17;;;;;;;43.30;17.42;;;8.30;99.90;;;;;;6218268;23;20376;-92